Time;durP1;ratioP1;P1;durP2;ratioP2;P2;SDS_P1;SDS_P2;PMS_P1;PMS_P2;Temp;Humidity;BMP_temperature;BMP_pressure;BME280_temperature;BME280_humidity;BME280_pressure;Samples;Min_cycle;Max_cycle;Signal;HPM_P1;HPM_P2
2023/08/06 00:00:28;;;;;;;8.00;4.78;;;20.40;96.50;;;;;;5091992;28;20110;-67
2023/08/06 00:03:32;;;;;;;9.73;4.22;;;20.50;96.50;;;;;;5090998;28;20043;-67
2023/08/06 00:06:36;;;;;;;8.23;3.42;;;20.50;96.20;;;;;;5092100;28;20362;-67
2023/08/06 00:09:40;;;;;;;9.07;4.05;;;20.50;96.30;;;;;;5091591;28;20039;-68
2023/08/06 00:12:44;;;;;;;7.13;3.10;;;20.50;96.20;;;;;;5091619;28;20043;-67
2023/08/06 00:15:48;;;;;;;8.30;3.67;;;20.50;95.90;;;;;;5091886;28;20054;-67
2023/08/06 00:18:52;;;;;;;12.10;4.65;;;20.50;95.90;;;;;;5091380;28;20392;-67
2023/08/06 00:21:56;;;;;;;9.13;4.10;;;20.20;96.30;;;;;;5090494;28;20067;-67
2023/08/06 00:25:01;;;;;;;8.15;4.50;;;20.10;96.60;;;;;;5091945;28;20055;-67
2023/08/06 00:28:04;;;;;;;8.65;4.38;;;20.20;96.70;;;;;;5091449;28;20058;-67
2023/08/06 00:31:09;;;;;;;14.98;4.60;;;20.30;96.10;;;;;;5091572;28;20288;-67
2023/08/06 00:34:13;;;;;;;8.95;5.13;;;20.30;95.80;;;;;;5090917;28;20400;-67
2023/08/06 00:37:17;;;;;;;7.53;5.72;;;19.10;96.10;;;;;;5091284;28;20503;-67
2023/08/06 00:40:22;;;;;;;10.55;5.15;;;20.10;96.70;;;;;;5090457;28;20039;-67
2023/08/06 00:43:27;;;;;;;7.88;5.38;;;20.10;96.70;;;;;;5091528;28;20043;-67
2023/08/06 00:46:32;;;;;;;17.52;5.75;;;20.20;96.40;;;;;;5091042;28;20054;-67
2023/08/06 00:49:37;;;;;;;13.50;6.60;;;20.30;96.30;;;;;;5091348;28;20038;-67
2023/08/06 00:52:41;;;;;;;11.13;6.07;;;20.30;96.30;;;;;;5090328;28;20050;-67
2023/08/06 00:55:45;;;;;;;11.73;6.30;;;20.60;95.90;;;;;;5090800;28;20062;-67
2023/08/06 00:58:49;;;;;;;13.30;7.03;;;20.30;95.90;;;;;;5091230;28;20498;-67
2023/08/06 01:01:53;;;;;;;13.65;6.40;;;20.20;96.10;;;;;;5091118;28;20043;-67
2023/08/06 01:04:58;;;;;;;11.65;6.95;;;20.10;96.00;;;;;;5090110;28;20641;-67
2023/08/06 01:08:08;;;;;;;14.23;6.25;;;20.20;96.40;;;;;;5090706;28;20494;-67
2023/08/06 01:11:42;;;;;;;6.83;5.50;;;18.90;95.70;;;;;;5089791;28;20424;-67
2023/08/06 01:15:29;;;;;;;7.18;5.20;;;19.40;95.90;;;;;;5091051;28;20059;-67
2023/08/06 01:18:33;;;;;;;10.38;5.75;;;20.20;96.10;;;;;;5090054;28;20185;-67
2023/08/06 01:21:37;;;;;;;11.23;5.57;;;20.00;96.70;;;;;;5089757;28;20039;-67
2023/08/06 01:24:47;;;;;;;9.93;5.65;;;20.10;96.30;;;;;;5090647;28;20392;-67
2023/08/06 01:27:56;;;;;;;9.77;5.50;;;20.10;96.40;;;;;;5090572;28;20063;-67
2023/08/06 01:31:05;;;;;;;10.40;6.82;;;20.10;96.50;;;;;;5090826;28;20043;-67
2023/08/06 01:34:21;;;;;;;10.18;5.90;;;20.00;96.10;;;;;;5089410;28;20059;-67
2023/08/06 01:37:28;;;;;;;9.35;6.22;;;20.00;96.40;;;;;;5090602;28;20039;-67
2023/08/06 01:40:32;;;;;;;12.55;7.03;;;20.00;96.20;;;;;;5089761;28;20103;-67
2023/08/06 01:43:37;;;;;;;10.60;6.53;;;20.10;96.40;;;;;;5090438;28;20067;-67
2023/08/06 01:46:41;;;;;;;10.35;5.80;;;20.00;96.30;;;;;;5094378;28;20498;-67
2023/08/06 01:49:45;;;;;;;14.52;6.15;;;20.00;96.50;;;;;;5094306;28;20434;-67
2023/08/06 01:52:49;;;;;;;10.27;5.75;;;19.90;95.90;;;;;;5094408;28;20392;-67
2023/08/06 01:55:52;;;;;;;7.53;5.13;;;19.90;96.00;;;;;;5094512;28;20511;-67
2023/08/06 01:58:56;;;;;;;9.18;4.78;;;19.70;96.40;;;;;;5093683;28;20042;-67
2023/08/06 02:02:00;;;;;;;13.23;4.43;;;19.80;96.50;;;;;;5093400;28;20050;-67
2023/08/06 02:05:04;;;;;;;8.15;4.60;;;19.70;96.70;;;;;;5094381;28;20043;-67
2023/08/06 02:08:09;;;;;;;7.63;4.70;;;19.80;96.50;;;;;;5093419;28;20047;-67
2023/08/06 02:11:13;;;;;;;7.47;4.47;;;19.70;96.30;;;;;;5094091;28;20400;-67
2023/08/06 02:14:17;;;;;;;9.32;4.43;;;19.70;96.50;;;;;;5093013;28;20051;-67
2023/08/06 02:17:20;;;;;;;10.13;4.50;;;19.70;96.80;;;;;;5093952;28;20400;-67
2023/08/06 02:20:24;;;;;;;5.97;4.00;;;19.80;96.30;;;;;;5093857;28;20055;-67
2023/08/06 02:23:28;;;;;;;10.80;5.05;;;19.80;96.60;;;;;;5093890;28;20035;-67
2023/08/06 02:26:32;;;;;;;9.82;4.22;;;19.80;96.40;;;;;;5093669;28;20051;-67
2023/08/06 02:29:36;;;;;;;8.98;4.40;;;22.40;97.00;;;;;;5093559;28;20388;-67
2023/08/06 02:32:40;;;;;;;8.50;4.80;;;19.80;96.40;;;;;;5092794;28;20042;-67
2023/08/06 02:35:44;;;;;;;6.82;4.40;;;19.80;96.60;;;;;;5093589;28;20047;-67
2023/08/06 02:38:47;;;;;;;6.50;4.38;;;19.90;96.40;;;;;;5092782;28;20035;-67
2023/08/06 02:41:51;;;;;;;8.35;4.45;;;20.00;96.20;;;;;;5081010;28;20042;-67
2023/08/06 02:44:56;;;;;;;5.70;3.90;;;19.80;96.50;;;;;;5093759;28;20086;-67
2023/08/06 02:48:00;;;;;;;6.25;3.38;;;19.70;96.60;;;;;;5093160;28;20043;-67
2023/08/06 02:51:03;;;;;;;7.53;4.00;;;19.90;96.30;;;;;;5092436;28;20260;-66
2023/08/06 02:54:09;;;;;;;5.93;3.55;;;19.50;96.40;;;;;;5092353;28;20506;-67
2023/08/06 02:57:14;;;;;;;9.90;3.60;;;19.80;96.40;;;;;;5091867;28;20403;-67
2023/08/06 03:00:18;;;;;;;6.43;3.80;;;19.90;96.30;;;;;;5092593;28;20047;-67
2023/08/06 03:03:22;;;;;;;7.75;4.18;;;19.80;96.40;;;;;;5092217;28;20407;-67
2023/08/06 03:06:33;;;;;;;8.95;3.60;;;19.60;96.50;;;;;;5092386;28;20510;-67
2023/08/06 03:09:39;;;;;;;10.70;4.05;;;19.60;96.70;;;;;;5092235;28;20058;-67
2023/08/06 03:12:43;;;;;;;7.65;3.78;;;19.60;96.60;;;;;;5091986;28;20062;-67
2023/08/06 03:15:58;;;;;;;8.63;4.35;;;19.60;96.70;;;;;;5092810;28;20042;-67
2023/08/06 03:19:03;;;;;;;6.25;3.30;;;19.60;97.00;;;;;;5091889;28;20062;-67
2023/08/06 03:22:07;;;;;;;7.55;3.40;;;19.60;96.70;;;;;;5092403;28;20123;-67
2023/08/06 03:25:12;;;;;;;9.52;3.67;;;19.70;96.60;;;;;;5092499;28;20063;-67
2023/08/06 03:28:18;;;;;;;6.28;3.30;;;19.60;96.60;;;;;;5091602;28;20039;-67
2023/08/06 03:31:23;;;;;;;8.07;3.45;;;19.60;96.60;;;;;;5091719;28;20043;-67
2023/08/06 03:34:27;;;;;;;6.10;3.10;;;19.50;97.00;;;;;;5079921;28;20051;-67
2023/08/06 03:37:31;;;;;;;5.88;3.30;;;19.60;96.70;;;;;;5092390;28;20039;-67
2023/08/06 03:40:36;;;;;;;5.57;3.38;;;19.50;96.90;;;;;;5092414;28;20403;-67
2023/08/06 03:43:40;;;;;;;10.57;3.72;;;19.80;97.10;;;;;;5091375;28;20042;-67
2023/08/06 03:46:48;;;;;;;6.43;3.55;;;19.60;96.90;;;;;;5091540;28;20043;-67
2023/08/06 03:49:52;;;;;;;5.90;3.40;;;19.20;96.70;;;;;;5091536;28;20039;-67
2023/08/06 03:52:57;;;;;;;6.15;3.75;;;19.70;96.60;;;;;;5090995;28;20427;-67
2023/08/06 03:56:02;;;;;;;9.98;3.47;;;19.60;96.60;;;;;;5092393;28;20507;-67
2023/08/06 03:59:08;;;;;;;17.48;4.20;;;19.50;97.00;;;;;;5091328;28;20511;-67
2023/08/06 04:02:11;;;;;;;8.50;3.60;;;19.10;97.50;;;;;;5092197;28;20039;-67
2023/08/06 04:05:16;;;;;;;8.95;4.05;;;19.10;98.10;;;;;;5091933;28;20047;-67
2023/08/06 04:08:20;;;;;;;7.95;3.72;;;19.20;98.30;;;;;;5091197;28;20063;-67
2023/08/06 04:11:24;;;;;;;5.50;3.53;;;19.30;97.60;;;;;;5092083;28;20051;-67
2023/08/06 04:14:28;;;;;;;10.57;3.50;;;19.40;97.70;;;;;;5091646;28;20408;-67
2023/08/06 04:17:34;;;;;;;6.93;3.42;;;19.30;97.70;;;;;;5090748;28;20055;-67
2023/08/06 04:20:49;;;;;;;7.50;3.67;;;19.20;98.10;;;;;;5091507;28;20047;-67
2023/08/06 04:23:53;;;;;;;9.43;3.58;;;19.20;98.00;;;;;;5091481;28;20043;-67
2023/08/06 04:26:57;;;;;;;9.43;4.05;;;19.30;98.20;;;;;;5090256;28;20063;-67
2023/08/06 04:30:02;;;;;;;7.15;3.60;;;19.40;97.80;;;;;;5090716;28;20039;-67
2023/08/06 04:33:06;;;;;;;5.60;3.25;;;19.40;97.80;;;;;;5090403;28;20407;-67
2023/08/06 04:36:12;;;;;;;6.32;3.40;;;19.40;98.10;;;;;;5090628;28;20046;-67
2023/08/06 04:39:16;;;;;;;7.00;3.95;;;19.50;98.00;;;;;;5091226;28;20055;-67
2023/08/06 04:42:20;;;;;;;7.13;3.25;;;19.80;96.90;;;;;;5091472;28;20051;-67
2023/08/06 04:45:24;;;;;;;5.85;3.10;;;20.50;97.40;;;;;;5090558;28;20051;-67
2023/08/06 04:48:28;;;;;;;4.15;2.60;;;21.90;94.40;;;;;;5091449;28;20039;-67
2023/08/06 04:51:32;;;;;;;6.80;2.65;;;22.50;93.40;;;;;;5091353;28;20043;-67
2023/08/06 04:54:36;;;;;;;9.48;2.70;;;24.00;91.30;;;;;;5091031;28;20408;-67
2023/08/06 04:57:40;;;;;;;5.38;2.05;;;24.10;91.00;;;;;;5090907;28;20098;-66
2023/08/06 05:00:44;;;;;;;5.68;1.90;;;26.00;85.40;;;;;;5091160;28;20050;-66
2023/08/06 05:03:48;;;;;;;6.18;2.58;;;26.60;83.90;;;;;;5091117;28;20044;-68
2023/08/06 05:06:52;;;;;;;2.78;1.92;;;27.30;81.50;;;;;;5090718;28;20391;-66
2023/08/06 05:09:56;;;;;;;4.25;2.35;;;27.50;81.30;;;;;;5091101;28;20047;-68
2023/08/06 05:13:00;;;;;;;5.53;2.13;;;27.90;80.00;;;;;;5090928;28;20043;-65
2023/08/06 05:16:04;;;;;;;4.68;2.35;;;28.20;79.70;;;;;;5090657;28;20058;-65
2023/08/06 05:19:08;;;;;;;6.40;2.88;;;28.70;78.40;;;;;;5090523;28;20039;-66
2023/08/06 05:22:12;;;;;;;8.05;3.15;;;27.30;76.80;;;;;;5090643;28;20049;-67
2023/08/06 05:25:16;;;;;;;8.70;3.10;;;28.10;79.40;;;;;;5090606;28;20043;-68
2023/08/06 05:28:20;;;;;;;6.32;3.45;;;27.50;80.40;;;;;;5090926;28;20070;-68
2023/08/06 05:31:28;;;;;;;8.52;2.83;;;25.50;84.90;;;;;;5090700;28;20090;-68
2023/08/06 05:34:32;;;;;;;9.00;3.38;;;27.00;86.40;;;;;;5090495;28;20051;-67
2023/08/06 05:37:36;;;;;;;7.18;3.55;;;25.30;86.40;;;;;;5090341;28;20039;-65
2023/08/06 05:40:40;;;;;;;12.02;4.78;;;24.90;87.00;;;;;;5090371;28;20039;-66
2023/08/06 05:43:44;;;;;;;9.88;4.13;;;24.60;88.10;;;;;;5090334;28;20475;-66
2023/08/06 05:46:49;;;;;;;10.52;4.82;;;24.60;89.30;;;;;;5090460;28;20047;-66
2023/08/06 05:49:53;;;;;;;12.38;5.10;;;23.90;90.70;;;;;;5090675;28;20503;-66
2023/08/06 05:52:57;;;;;;;12.25;4.38;;;24.60;91.10;;;;;;5090384;28;20067;-66
2023/08/06 05:56:01;;;;;;;9.10;4.40;;;24.20;91.10;;;;;;5090520;28;20075;-66
2023/08/06 05:59:05;;;;;;;9.35;4.45;;;24.50;90.90;;;;;;5090357;28;20047;-66
2023/08/06 06:02:09;;;;;;;7.70;3.95;;;26.10;91.10;;;;;;5090553;28;20058;-66
2023/08/06 06:05:13;;;;;;;5.93;3.58;;;24.90;90.40;;;;;;5090509;28;20038;-66
2023/08/06 06:08:17;;;;;;;13.57;3.42;;;24.90;90.60;;;;;;5090219;28;20043;-66
2023/08/06 06:11:22;;;;;;;7.68;3.42;;;25.30;90.20;;;;;;5090222;28;20043;-66
2023/08/06 06:14:25;;;;;;;8.88;3.30;;;25.20;90.10;;;;;;5090100;28;20071;-66
2023/08/06 06:17:29;;;;;;;8.35;3.30;;;25.40;90.10;;;;;;5090102;28;20043;-66
2023/08/06 06:20:33;;;;;;;7.15;3.30;;;25.50;90.10;;;;;;5090303;28;20237;-66
2023/08/06 06:23:37;;;;;;;9.18;3.10;;;25.50;90.20;;;;;;5090284;28;20050;-66
2023/08/06 06:26:41;;;;;;;8.20;2.97;;;25.60;90.20;;;;;;5090124;28;20498;-66
2023/08/06 06:29:45;;;;;;;5.30;2.90;;;25.80;90.10;;;;;;5090007;28;20047;-66
2023/08/06 06:32:49;;;;;;;9.07;2.83;;;25.90;89.60;;;;;;5093556;28;20040;-66
2023/08/06 06:35:53;;;;;;;7.85;2.67;;;26.20;90.00;;;;;;5092952;28;20503;-66
2023/08/06 06:38:57;;;;;;;12.68;3.17;;;26.20;90.00;;;;;;5093508;28;20055;-66
2023/08/06 06:42:01;;;;;;;10.75;3.05;;;26.50;89.20;;;;;;5093746;28;20055;-66
2023/08/06 06:45:13;;;;;;;7.60;2.75;;;26.80;87.00;;;;;;5092572;28;20043;-66
2023/08/06 06:48:17;;;;;;;7.90;3.22;;;26.80;87.90;;;;;;5093355;28;20510;-66
2023/08/06 06:51:20;;;;;;;8.90;2.90;;;26.70;87.80;;;;;;5093586;28;20507;-66
2023/08/06 06:54:24;;;;;;;8.98;2.90;;;26.90;87.00;;;;;;5093310;28;20092;-68
2023/08/06 06:57:28;;;;;;;8.07;2.63;;;27.40;86.60;;;;;;5093393;28;20047;-66
2023/08/06 07:00:32;;;;;;;6.70;2.72;;;27.80;85.20;;;;;;5093402;28;20051;-68
2023/08/06 07:03:36;;;;;;;8.00;2.78;;;28.30;84.60;;;;;;5093320;28;20047;-68
2023/08/06 07:06:40;;;;;;;9.45;2.70;;;28.50;83.00;;;;;;5093132;28;20073;-68
2023/08/06 07:09:45;;;;;;;10.18;2.58;;;28.50;83.10;;;;;;5093177;28;20051;-68
2023/08/06 07:12:48;;;;;;;6.10;2.53;;;28.50;83.30;;;;;;5093155;28;20047;-68
2023/08/06 07:15:53;;;;;;;7.95;2.47;;;28.50;82.80;;;;;;5093101;28;20526;-68
2023/08/06 07:18:57;;;;;;;9.70;2.58;;;28.50;83.40;;;;;;5092888;28;20039;-68
2023/08/06 07:22:01;;;;;;;11.82;2.80;;;28.80;83.20;;;;;;5092774;28;20066;-68
2023/08/06 07:25:05;;;;;;;5.38;2.38;;;28.90;82.50;;;;;;5092784;28;20043;-68
2023/08/06 07:28:10;;;;;;;10.50;3.03;;;29.10;82.20;;;;;;5091596;28;20047;-68
2023/08/06 07:31:14;;;;;;;6.85;2.72;;;29.20;81.80;;;;;;5092399;28;20055;-68
2023/08/06 07:34:18;;;;;;;10.27;3.17;;;29.00;82.00;;;;;;5092382;28;20059;-68
2023/08/06 07:37:22;;;;;;;11.02;2.75;;;28.80;82.60;;;;;;5092441;28;20051;-68
2023/08/06 07:40:26;;;;;;;12.00;3.00;;;28.70;82.70;;;;;;5092364;28;20058;-68
2023/08/06 07:43:30;;;;;;;8.57;2.80;;;28.30;83.00;;;;;;5091014;28;20102;-68
2023/08/06 07:46:35;;;;;;;12.02;2.72;;;28.20;84.30;;;;;;5092007;28;20519;-68
2023/08/06 07:49:38;;;;;;;18.33;3.70;;;28.10;84.90;;;;;;5092098;28;20047;-68
2023/08/06 07:52:43;;;;;;;12.30;2.60;;;28.00;84.60;;;;;;5092297;28;20047;-68
2023/08/06 07:55:51;;;;;;;11.73;2.65;;;27.80;85.00;;;;;;5091933;28;20059;-68
2023/08/06 07:58:55;;;;;;;11.75;3.00;;;27.70;85.40;;;;;;5092055;28;20047;-68
2023/08/06 08:01:59;;;;;;;15.70;3.10;;;27.50;86.00;;;;;;5092163;28;20043;-68
2023/08/06 08:05:03;;;;;;;15.13;3.50;;;27.70;85.30;;;;;;5092202;28;20063;-68
2023/08/06 08:08:07;;;;;;;13.20;2.97;;;27.70;85.70;;;;;;5091826;28;20421;-68
2023/08/06 08:11:11;;;;;;;9.18;2.75;;;27.80;85.50;;;;;;5091779;28;20043;-68
2023/08/06 08:14:15;;;;;;;7.53;2.55;;;28.20;84.50;;;;;;5091868;28;20118;-68
2023/08/06 08:17:19;;;;;;;7.65;3.33;;;28.60;83.80;;;;;;5091787;28;20039;-68
2023/08/06 08:20:23;;;;;;;7.85;2.47;;;28.90;83.20;;;;;;5091885;28;20047;-68
2023/08/06 08:23:28;;;;;;;12.40;2.88;;;29.00;83.60;;;;;;5091824;28;20035;-68
2023/08/06 08:26:32;;;;;;;7.10;2.60;;;29.00;83.00;;;;;;5090993;28;20054;-68
2023/08/06 08:29:36;;;;;;;13.05;2.63;;;28.90;82.00;;;;;;5091807;28;20051;-68
2023/08/06 08:32:40;;;;;;;11.70;3.22;;;28.80;83.30;;;;;;5091405;28;20043;-68
2023/08/06 08:35:47;;;;;;;10.30;3.17;;;29.20;83.00;;;;;;5091186;28;20051;-68
2023/08/06 08:38:53;;;;;;;11.75;2.50;;;29.70;81.80;;;;;;5091138;28;20039;-68
2023/08/06 08:41:57;;;;;;;9.93;2.50;;;30.10;79.70;;;;;;5091140;28;20039;-68
2023/08/06 08:45:02;;;;;;;9.73;2.63;;;29.90;78.80;;;;;;5090979;28;20368;-68
2023/08/06 08:48:07;;;;;;;17.40;2.42;;;29.70;80.00;;;;;;5091429;28;20043;-68
2023/08/06 08:51:12;;;;;;;8.02;2.50;;;29.70;80.50;;;;;;5090924;28;20035;-68
2023/08/06 08:54:18;;;;;;;7.22;2.08;;;29.60;80.20;;;;;;5090681;28;20419;-66
2023/08/06 08:57:22;;;;;;;14.52;2.30;;;29.40;80.80;;;;;;5091028;28;20042;-66
2023/08/06 09:00:27;;;;;;;10.30;2.78;;;29.20;81.60;;;;;;5090888;28;20388;-66
2023/08/06 09:03:32;;;;;;;9.88;2.53;;;29.10;82.60;;;;;;5090764;28;20059;-68
2023/08/06 09:06:38;;;;;;;11.57;2.60;;;29.40;82.50;;;;;;5090748;28;20039;-67
2023/08/06 09:09:45;;;;;;;9.80;2.67;;;29.60;82.50;;;;;;5091166;28;20035;-67
2023/08/06 09:12:52;;;;;;;9.38;2.42;;;29.80;81.80;;;;;;5090595;28;20047;-67
2023/08/06 09:15:56;;;;;;;15.75;3.25;;;30.10;81.90;;;;;;5090407;28;20118;-67
2023/08/06 09:19:13;;;;;;;15.20;2.97;;;30.10;81.70;;;;;;5090475;28;20044;-67
2023/08/06 09:22:17;;;;;;;12.00;2.42;;;30.00;81.60;;;;;;5090651;28;20046;-67
2023/08/06 09:25:26;;;;;;;41.13;4.45;;;30.10;82.00;;;;;;5090651;28;20051;-67
2023/08/06 09:28:42;;;;;;;12.35;2.70;;;29.80;81.70;;;;;;5090369;28;20059;-67
2023/08/06 09:31:47;;;;;;;15.68;3.10;;;29.50;82.30;;;;;;5090845;28;20459;-67
2023/08/06 09:34:56;;;;;;;11.88;2.40;;;29.20;83.10;;;;;;5090700;28;20051;-67
2023/08/06 09:38:10;;;;;;;14.65;3.20;;;28.90;83.40;;;;;;5090531;28;20039;-67
2023/08/06 09:41:28;;;;;;;14.98;3.00;;;28.60;83.90;;;;;;5090716;28;20039;-67
2023/08/06 09:44:33;;;;;;;17.17;2.85;;;28.40;84.40;;;;;;5090232;28;20043;-67
2023/08/06 09:47:37;;;;;;;37.70;5.90;;;28.20;86.10;;;;;;5090494;28;20058;-67
2023/08/06 09:50:41;;;;;;;30.73;5.60;;;27.90;90.60;;;;;;5090703;28;20050;-67
2023/08/06 09:53:48;;;;;;;17.67;4.40;;;27.60;91.30;;;;;;5090622;28;20055;-67
2023/08/06 09:56:53;;;;;;;15.73;3.75;;;27.30;92.00;;;;;;5090393;28;20055;-67
2023/08/06 09:59:57;;;;;;;18.55;3.45;;;27.00;93.60;;;;;;5090479;28;20043;-67
2023/08/06 10:03:02;;;;;;;19.42;5.15;;;26.50;93.70;;;;;;5090469;28;20503;-67
2023/08/06 10:06:08;;;;;;;19.33;5.13;;;26.40;94.90;;;;;;5091367;28;20054;-67
2023/08/06 10:09:12;;;;;;;22.23;4.95;;;26.30;95.00;;;;;;5094141;28;20371;-67
2023/08/06 10:12:19;;;;;;;21.48;4.70;;;26.30;94.80;;;;;;5094394;28;20043;-67
2023/08/06 10:15:29;;;;;;;17.02;3.80;;;26.20;94.40;;;;;;5093166;28;20419;-67
2023/08/06 10:18:37;;;;;;;16.83;3.53;;;26.10;93.80;;;;;;5094366;28;20051;-67
2023/08/06 10:21:41;;;;;;;13.00;3.40;;;26.10;93.80;;;;;;5094102;28;20269;-67
2023/08/06 10:24:53;;;;;;;17.92;4.13;;;26.30;94.40;;;;;;5094240;28;20043;-67
2023/08/06 10:27:57;;;;;;;13.75;3.95;;;26.30;95.40;;;;;;5093907;28;20043;-67
2023/08/06 10:31:01;;;;;;;11.48;3.10;;;26.30;94.80;;;;;;5093963;28;20039;-67
2023/08/06 10:34:05;;;;;;;17.42;3.30;;;26.40;94.40;;;;;;5093408;28;20051;-67
2023/08/06 10:37:09;;;;;;;11.98;3.60;;;26.80;94.30;;;;;;5093852;28;20055;-67
2023/08/06 10:40:21;;;;;;;12.75;3.10;;;27.20;94.20;;;;;;5093402;28;20043;-67
2023/08/06 10:43:29;;;;;;;11.27;3.33;;;27.30;93.80;;;;;;5093748;28;20050;-67
2023/08/06 10:46:33;;;;;;;17.45;3.55;;;27.20;93.70;;;;;;5093407;28;20047;-67
2023/08/06 10:49:37;;;;;;;15.48;3.70;;;27.20;93.50;;;;;;5093339;28;20039;-67
2023/08/06 10:52:42;;;;;;;17.08;4.05;;;27.00;93.50;;;;;;5093102;28;20511;-67
2023/08/06 10:55:46;;;;;;;21.63;4.22;;;26.80;94.90;;;;;;5093128;28;20507;-68
2023/08/06 10:58:53;;;;;;;15.85;4.55;;;26.60;95.10;;;;;;5093167;28;20054;-68
2023/08/06 11:01:57;;;;;;;29.25;5.13;;;26.50;94.30;;;;;;5093290;28;20526;-68
2023/08/06 11:05:11;;;;;;;22.83;4.22;;;26.50;93.60;;;;;;5092934;28;20039;-68
2023/08/06 11:08:24;;;;;;;18.45;4.35;;;26.70;94.20;;;;;;5093128;28;20047;-68
2023/08/06 11:11:29;;;;;;;27.33;5.85;;;26.70;93.20;;;;;;5092817;28;20055;-67
2023/08/06 11:14:33;;;;;;;28.25;5.60;;;26.80;93.30;;;;;;5091958;28;20063;-68
2023/08/06 11:17:40;;;;;;;22.02;5.72;;;27.00;93.10;;;;;;5092648;28;20384;-68
2023/08/06 11:20:44;;;;;;;26.65;5.53;;;27.20;92.40;;;;;;5092592;28;20507;-67
2023/08/06 11:23:49;;;;;;;32.25;6.15;;;27.30;91.20;;;;;;5092930;28;20046;-68
2023/08/06 11:26:52;;;;;;;26.05;5.28;;;27.30;91.70;;;;;;5092468;28;20047;-68
2023/08/06 11:29:57;;;;;;;35.05;5.57;;;27.20;91.80;;;;;;5092558;28;20055;-68
2023/08/06 11:33:01;;;;;;;22.50;4.88;;;27.20;91.60;;;;;;5092793;28;20495;-68
2023/08/06 11:36:04;;;;;;;27.50;5.43;;;27.30;91.30;;;;;;5092281;28;20071;-68
2023/08/06 11:39:09;;;;;;;18.00;4.47;;;27.40;90.70;;;;;;5092472;28;20058;-68
2023/08/06 11:42:13;;;;;;;23.33;5.07;;;27.60;90.60;;;;;;5092593;28;20051;-68
2023/08/06 11:45:21;;;;;;;22.40;8.55;;;27.80;90.90;;;;;;5092197;28;20046;-68
2023/08/06 11:48:25;;;;;;;28.52;8.68;;;27.90;90.10;;;;;;5092354;28;20050;-68
2023/08/06 11:51:29;;;;;;;28.63;7.47;;;28.10;90.00;;;;;;5092379;28;20047;-68
2023/08/06 11:54:34;;;;;;;19.80;8.23;;;28.20;88.70;;;;;;5092080;28;20051;-68
2023/08/06 11:57:39;;;;;;;21.60;5.50;;;28.20;87.50;;;;;;5092717;28;20047;-68
2023/08/06 12:00:43;;;;;;;23.38;6.22;;;28.30;86.50;;;;;;5092206;28;20047;-68
2023/08/06 12:03:47;;;;;;;27.60;6.13;;;28.30;85.70;;;;;;5091775;28;20039;-68
2023/08/06 12:06:51;;;;;;;22.30;5.82;;;28.50;87.00;;;;;;5092174;28;20051;-68
2023/08/06 12:09:55;;;;;;;23.50;9.43;;;28.50;86.10;;;;;;5091730;28;20051;-67
2023/08/06 12:13:00;;;;;;;21.77;6.30;;;28.40;85.70;;;;;;5091685;28;20043;-68
2023/08/06 12:16:04;;;;;;;21.05;4.95;;;28.30;86.90;;;;;;5091640;28;20655;-68
2023/08/06 12:19:08;;;;;;;23.83;4.93;;;28.30;86.00;;;;;;5091517;28;20491;-68
2023/08/06 12:22:13;;;;;;;23.98;5.50;;;28.20;84.60;;;;;;5091507;28;20194;-68
2023/08/06 12:25:17;;;;;;;21.05;5.03;;;28.20;84.20;;;;;;5091610;28;20043;-68
2023/08/06 12:28:21;;;;;;;13.77;4.50;;;28.20;83.10;;;;;;5090891;28;20055;-68
2023/08/06 12:31:25;;;;;;;30.50;10.63;;;28.10;84.10;;;;;;5091677;28;20282;-68
2023/08/06 12:34:29;;;;;;;32.25;12.00;;;28.20;84.00;;;;;;5091340;28;20051;-68
2023/08/06 12:37:33;;;;;;;21.40;9.15;;;28.10;84.20;;;;;;5091287;28;20526;-68
2023/08/06 12:40:37;;;;;;;22.75;6.13;;;28.10;84.60;;;;;;5091185;28;20388;-68
2023/08/06 12:43:41;;;;;;;27.35;5.93;;;28.10;84.20;;;;;;5091265;28;20047;-67
2023/08/06 12:46:45;;;;;;;25.77;6.00;;;28.10;83.60;;;;;;5090888;28;20420;-68
2023/08/06 12:49:49;;;;;;;19.30;4.95;;;28.10;82.70;;;;;;5091317;28;20050;-68
2023/08/06 12:52:53;;;;;;;20.05;4.22;;;28.10;83.20;;;;;;5091112;28;20531;-68
2023/08/06 12:55:57;;;;;;;21.77;4.50;;;28.10;82.40;;;;;;5090809;28;20059;-68
2023/08/06 12:59:01;;;;;;;24.42;4.35;;;28.10;81.90;;;;;;5091146;28;20660;-68
2023/08/06 13:02:05;;;;;;;16.48;4.75;;;28.20;81.80;;;;;;5091254;28;20070;-68
2023/08/06 13:05:09;;;;;;;21.17;4.75;;;28.20;80.50;;;;;;5090609;28;20043;-68
2023/08/06 13:08:13;;;;;;;18.92;4.47;;;28.10;80.50;;;;;;5090954;28;20047;-68
2023/08/06 13:11:18;;;;;;;16.88;4.72;;;28.10;81.40;;;;;;5091107;28;20376;-68
2023/08/06 13:14:22;;;;;;;15.30;4.60;;;28.20;80.70;;;;;;5090536;28;20392;-68
2023/08/06 13:17:26;;;;;;;18.33;3.92;;;28.20;80.00;;;;;;5090984;28;20047;-68
2023/08/06 13:20:31;;;;;;;21.02;5.63;;;28.10;79.70;;;;;;5089753;28;20412;-68
2023/08/06 13:23:34;;;;;;;21.98;6.95;;;28.10;80.00;;;;;;5090714;28;20051;-68
2023/08/06 13:26:39;;;;;;;21.42;8.90;;;28.10;79.00;;;;;;5089588;28;20495;-68
2023/08/06 13:29:43;;;;;;;20.27;5.13;;;28.10;78.10;;;;;;5090646;28;20042;-68
2023/08/06 13:32:47;;;;;;;18.83;3.88;;;28.10;78.60;;;;;;5090361;28;20035;-68
2023/08/06 13:35:51;;;;;;;16.77;4.10;;;28.10;78.70;;;;;;5090530;28;20534;-68
2023/08/06 13:38:55;;;;;;;21.92;4.68;;;28.10;79.20;;;;;;5090402;28;20051;-68
2023/08/06 13:41:58;;;;;;;18.58;4.32;;;28.10;78.80;;;;;;5094688;28;20051;-67
2023/08/06 13:45:04;;;;;;;23.00;5.05;;;28.10;77.00;;;;;;5094846;28;20039;-68
2023/08/06 13:48:08;;;;;;;14.35;4.10;;;28.10;78.50;;;;;;5094577;28;20039;-68
2023/08/06 13:51:13;;;;;;;17.23;4.50;;;28.10;77.60;;;;;;5094287;28;20055;-68
2023/08/06 13:54:17;;;;;;;21.58;3.42;;;28.10;76.40;;;;;;5094094;28;20403;-68
2023/08/06 13:57:20;;;;;;;12.20;3.38;;;28.10;76.10;;;;;;5094686;28;20066;-68
2023/08/06 14:00:25;;;;;;;13.80;3.70;;;28.10;75.30;;;;;;5094422;28;20055;-68
2023/08/06 14:03:29;;;;;;;10.32;3.50;;;28.10;75.10;;;;;;5094440;28;20047;-67
2023/08/06 14:06:33;;;;;;;17.30;3.70;;;29.20;74.90;;;;;;5094483;28;20498;-67
2023/08/06 14:09:37;;;;;;;14.57;4.10;;;30.70;72.40;;;;;;5094471;28;20047;-67
2023/08/06 14:12:41;;;;;;;16.55;4.25;;;31.60;70.40;;;;;;5094301;28;20058;-66
2023/08/06 14:15:48;;;;;;;16.45;3.55;;;32.20;69.90;;;;;;5093861;28;20055;-68
2023/08/06 14:18:51;;;;;;;17.13;3.10;;;32.30;69.00;;;;;;5093873;28;20035;-68
2023/08/06 14:21:55;;;;;;;22.67;4.63;;;32.50;68.50;;;;;;5093829;28;20039;-68
2023/08/06 14:24:59;;;;;;;17.15;4.78;;;32.60;68.70;;;;;;5093832;28;20039;-68
2023/08/06 14:28:06;;;;;;;20.13;5.40;;;32.70;68.30;;;;;;5094023;28;20076;-69
2023/08/06 14:31:11;;;;;;;14.23;4.03;;;32.50;67.90;;;;;;5092963;28;20051;-68
2023/08/06 14:34:15;;;;;;;13.15;3.92;;;32.80;67.70;;;;;;5094080;28;20051;-69
2023/08/06 14:37:19;;;;;;;18.20;4.30;;;32.90;67.10;;;;;;5093878;28;20404;-69
2023/08/06 14:40:22;;;;;;;15.00;4.22;;;32.90;67.10;;;;;;5093047;28;20114;-69
2023/08/06 14:43:27;;;;;;;14.07;4.35;;;32.10;67.90;;;;;;5092012;28;20523;-69
2023/08/06 14:46:31;;;;;;;17.52;4.40;;;31.30;69.40;;;;;;5091604;28;20396;-69
2023/08/06 14:49:35;;;;;;;20.55;4.43;;;30.60;70.40;;;;;;5091651;28;20491;-70
2023/08/06 14:52:39;;;;;;;21.55;4.18;;;29.90;71.50;;;;;;5091394;28;20515;-70
2023/08/06 14:55:42;;;;;;;22.90;4.82;;;29.60;71.90;;;;;;5092420;28;20055;-70
2023/08/06 14:58:46;;;;;;;16.10;4.25;;;29.30;72.40;;;;;;5092036;28;20047;-70
2023/08/06 15:01:51;;;;;;;16.10;4.00;;;29.20;73.00;;;;;;5091840;28;20051;-69
2023/08/06 15:04:55;;;;;;;26.05;5.30;;;29.00;73.70;;;;;;5092387;28;20058;-69
2023/08/06 15:07:59;;;;;;;20.65;4.43;;;28.90;73.70;;;;;;5092669;28;20051;-69
2023/08/06 15:11:04;;;;;;;21.73;4.95;;;28.80;74.40;;;;;;5093585;28;20051;-69
2023/08/06 15:14:07;;;;;;;19.45;4.47;;;28.70;74.50;;;;;;5092892;28;20055;-68
2023/08/06 15:17:12;;;;;;;25.52;5.28;;;28.60;74.70;;;;;;5093235;28;20047;-70
2023/08/06 15:20:15;;;;;;;19.08;4.63;;;28.50;73.50;;;;;;5092741;28;20507;-69
2023/08/06 15:23:19;;;;;;;23.05;4.93;;;28.40;74.40;;;;;;5092861;28;20471;-69
2023/08/06 15:26:24;;;;;;;28.92;4.72;;;28.40;74.70;;;;;;5092512;28;20051;-69
2023/08/06 15:29:28;;;;;;;19.05;4.78;;;28.30;74.70;;;;;;5092789;28;20066;-69
2023/08/06 15:32:31;;;;;;;26.42;5.20;;;28.20;75.30;;;;;;5092879;28;20047;-69
2023/08/06 15:35:35;;;;;;;29.77;5.13;;;28.10;75.50;;;;;;5092187;28;20415;-69
2023/08/06 15:38:40;;;;;;;30.85;6.18;;;28.10;75.80;;;;;;5092488;28;20059;-69
2023/08/06 15:41:44;;;;;;;27.98;5.53;;;28.00;75.80;;;;;;5092317;28;20063;-68
2023/08/06 15:44:48;;;;;;;24.20;5.10;;;28.00;76.50;;;;;;5092055;28;20039;-70
2023/08/06 15:47:52;;;;;;;21.45;5.15;;;27.90;76.60;;;;;;5092352;28;20043;-70
2023/08/06 15:50:57;;;;;;;30.55;5.72;;;28.00;76.70;;;;;;5092397;28;20051;-70
2023/08/06 15:54:01;;;;;;;31.70;6.43;;;28.00;77.50;;;;;;5092211;28;20039;-71